Time;durP1;ratioP1;P1;durP2;ratioP2;P2;SDS_P1;SDS_P2;PMS_P1;PMS_P2;Temp;Humidity;BMP_temperature;BMP_pressure;BME280_temperature;BME280_humidity;BME280_pressure;Samples;Min_cycle;Max_cycle;Signal;HPM_P1;HPM_P2
2022/03/03 01:29:15;;;;;;;;;;;;;;;5.46;72.36;101746.41;5950985;23;1686;-96
2022/03/03 05:10:32;;;;;;;;;;;;;;;4.44;71.03;101741.50;4864134;29;1318;-97
2022/03/03 05:13:28;;;;;;;;;;;;;;;4.46;70.85;101735.03;4863836;29;1005;-96
2022/03/03 05:16:22;;;;;;;;;;;;;;;4.44;70.97;101742.38;4864480;29;1947;-96
2022/03/03 05:22:23;;;;;;;;;;;;;;;4.44;70.85;101742.38;4900487;29;937;-96
2022/03/03 05:28:21;;;;;;;;;;;;;;;4.45;70.72;101738.72;4901372;29;1150;-96
2022/03/03 05:31:16;;;;;;;;;;;;;;;4.43;70.69;101745.19;4901194;29;799;-96
2022/03/03 05:33:49;;;;;;;;;;;;;;;4.44;70.64;101750.38;4885462;29;1362;-96
2022/03/03 05:41:49;;;;;;;;;;;;;;;4.45;70.30;101746.72;4883545;29;1411;-96
2022/03/03 05:44:27;;;;;;;;;;;;;;;4.45;70.40;101753.88;4917025;28;1350;-96
2022/03/03 05:52:44;;;;;;;;;;;;;;;4.46;70.29;101758.22;4961309;29;1455;-96
2022/03/03 05:55:14;;;;;;;;;;;;;;;4.42;70.17;101767.53;4961705;29;1530;-96
2022/03/03 05:57:57;;;;;;;;;;;;;;;4.43;70.30;101767.34;4961746;29;1875;-96
2022/03/03 06:00:26;;;;;;;;;;;;;;;4.42;70.18;101763.03;4922782;29;1382;-96
2022/03/03 06:02:56;;;;;;;;;;;;;;;4.42;70.12;101762.19;4921848;29;1466;-96
2022/03/03 06:08:08;;;;;;;;;;;;;;;4.43;70.20;101771.84;4922452;29;1367;-96
2022/03/03 06:10:41;;;;;;;;;;;;;;;4.44;70.02;101771.72;4938980;29;1217;-96
2022/03/03 06:13:10;;;;;;;;;;;;;;;4.41;70.17;101768.50;4922471;29;1389;-96
2022/03/03 06:15:44;;;;;;;;;;;;;;;4.43;70.10;101770.03;4922346;29;1958;-96
2022/03/03 06:18:32;;;;;;;;;;;;;;;4.41;70.05;101774.69;4938259;29;984;-96
2022/03/03 06:23:46;;;;;;;;;;;;;;;4.44;69.95;101778.88;4921339;29;1472;-96
2022/03/03 06:26:17;;;;;;;;;;;;;;;4.45;69.68;101791.22;4938005;29;1231;-96
2022/03/03 06:28:46;;;;;;;;;;;;;;;4.43;69.84;101788.69;4906688;29;1373;-96
2022/03/03 06:31:15;;;;;;;;;;;;;;;4.40;69.88;101786.34;4922416;29;1413;-96
2022/03/03 06:39:06;;;;;;;;;;;;;;;4.42;69.81;101799.53;4921994;29;1392;-96
2022/03/03 06:41:38;;;;;;;;;;;;;;;4.45;69.67;101807.25;4922454;29;1415;-96
2022/03/03 06:44:07;;;;;;;;;;;;;;;4.44;69.59;101808.22;4922084;29;1730;-96
2022/03/03 06:49:18;;;;;;;;;;;;;;;4.40;69.79;101801.50;4922806;29;1335;-96
2022/03/03 06:51:47;;;;;;;;;;;;;;;4.42;69.50;101802.19;4921700;29;1185;-96
2022/03/03 06:54:17;;;;;;;;;;;;;;;4.44;69.63;101798.41;4922909;29;1286;-96
2022/03/03 06:56:48;;;;;;;;;;;;;;;4.42;69.66;101804.88;4939232;29;1888;-96
2022/03/03 07:07:24;;;;;;;;;;;;;;;4.43;69.59;101798.53;4923843;29;1323;-96
2022/03/03 07:09:53;;;;;;;;;;;;;;;4.47;69.41;101811.44;4924377;29;1380;-96
2022/03/03 07:12:33;;;;;;;;;;;;;;;4.43;69.57;101810.03;4925163;29;1287;-96
2022/03/03 07:15:02;;;;;;;;;;;;;;;4.45;69.36;101807.25;4924359;29;1433;-96
2022/03/03 07:17:29;;;;;;;;;;;;;;;4.46;69.27;101814.25;4917328;29;1990;-96
2022/03/03 07:19:56;;;;;;;;;;;;;;;4.46;69.39;101811.56;4939657;29;1453;-96
2022/03/03 07:22:23;;;;;;;;;;;;;;;4.47;69.26;101815.91;4953947;29;1239;-96
2022/03/03 07:24:49;;;;;;;;;;;;;;;4.43;69.53;101809.22;4954399;29;1257;-96
2022/03/03 07:27:17;;;;;;;;;;;;;;;4.44;69.40;101808.22;4953008;29;1355;-96
2022/03/03 07:29:43;;;;;;;;;;;;;;;4.42;69.37;101811.03;4951954;29;1352;-96
2022/03/03 07:32:10;;;;;;;;;;;;;;;4.45;69.37;101810.75;4951571;29;1160;-96
2022/03/03 07:34:37;;;;;;;;;;;;;;;4.45;69.37;101817.91;4952377;29;1412;-96
2022/03/03 07:37:03;;;;;;;;;;;;;;;4.46;69.39;101816.91;4953445;29;1977;-96
2022/03/03 07:39:31;;;;;;;;;;;;;;;4.46;69.15;101814.25;4952101;29;1304;-96
2022/03/03 07:41:58;;;;;;;;;;;;;;;4.45;69.13;101812.56;4950594;29;1327;-96
2022/03/03 07:44:25;;;;;;;;;;;;;;;4.46;69.21;101817.75;4950881;29;1242;-96
2022/03/03 07:46:52;;;;;;;;;;;;;;;4.46;69.22;101811.56;4951014;29;1276;-96
2022/03/03 07:49:19;;;;;;;;;;;;;;;4.43;69.33;101807.38;4950124;29;1434;-96
2022/03/03 07:51:46;;;;;;;;;;;;;;;4.48;69.02;101809.59;4948580;29;1224;-96
2022/03/03 07:54:12;;;;;;;;;;;;;;;4.45;69.26;101813.41;4947552;29;1249;-96
2022/03/03 07:56:39;;;;;;;;;;;;;;;4.48;69.05;101814.94;4947146;29;1927;-96
2022/03/03 07:59:06;;;;;;;;;;;;;;;4.51;69.06;101811.97;4934969;29;1348;-96
2022/03/03 08:01:32;;;;;;;;;;;;;;;4.49;68.96;101808.59;4939723;29;1277;-96
2022/03/03 08:03:59;;;;;;;;;;;;;;;4.48;68.95;101812.28;4945558;29;1235;-96
2022/03/03 08:06:25;;;;;;;;;;;;;;;4.48;68.98;101809.59;4945518;29;1388;-96
2022/03/03 08:08:51;;;;;;;;;;;;;;;4.47;69.07;101819.44;4944599;29;1260;-96
2022/03/03 08:11:19;;;;;;;;;;;;;;;4.51;68.93;101809.31;4944530;29;1451;-96
2022/03/03 08:13:46;;;;;;;;;;;;;;;4.50;68.89;101812.94;4945860;29;1300;-96
2022/03/03 08:16:13;;;;;;;;;;;;;;;4.54;69.00;101819.69;4946903;29;1895;-96
2022/03/03 08:18:39;;;;;;;;;;;;;;;4.51;68.98;101820.81;4947755;29;1277;-96
2022/03/03 08:21:06;;;;;;;;;;;;;;;4.51;69.07;101820.81;4947769;29;1236;-96
2022/03/03 08:23:32;;;;;;;;;;;;;;;4.53;68.92;101820.69;4949274;29;1562;-96
2022/03/03 08:25:59;;;;;;;;;;;;;;;4.54;69.05;101833.03;4951106;29;1357;-96
2022/03/03 08:28:26;;;;;;;;;;;;;;;4.58;68.62;101831.72;4951282;29;1228;-96
2022/03/03 08:30:53;;;;;;;;;;;;;;;4.62;68.64;101835.78;4956066;29;1300;-96
2022/03/03 08:33:31;;;;;;;;;;;;;;;4.55;68.74;101834.69;4957695;29;1313;-96
2022/03/03 08:36:01;;;;;;;;;;;;;;;4.58;68.82;101837.06;4958820;29;1341;-96
2022/03/03 22:46:41;;;;;;;;;;;;;;;5.74;72.69;101797.88;4760359;27;9321926;-96
2022/03/03 22:49:08;;;;;;;;;;;;;;;5.73;72.90;101796.19;5069261;28;1225;-96
2022/03/03 22:54:21;;;;;;;;;;;;;;;5.69;72.75;101803.69;5068342;28;1902;-96
2022/03/03 22:56:48;;;;;;;;;;;;;;;5.66;72.46;101809.34;5070098;28;1323;-96
2022/03/03 22:59:16;;;;;;;;;;;;;;;5.67;72.75;101812.84;5069643;28;1242;-96
2022/03/03 23:01:43;;;;;;;;;;;;;;;5.65;72.47;101807.69;5068593;28;1404;-96
